sensor_id;sensor_type;location;lat;lon;timestamp;P1;P2;P0
45700;PMS5003;36277;32.852;-116.998;2023-04-23T00:00:43;3.00;3.00;2.20
45700;PMS5003;36277;32.852;-116.998;2023-04-23T00:03:12;4.00;4.00;3.00
45700;PMS5003;36277;32.852;-116.998;2023-04-23T00:05:39;3.40;3.40;3.40
45700;PMS5003;36277;32.852;-116.998;2023-04-23T00:08:07;2.00;2.00;2.00
45700;PMS5003;36277;32.852;-116.998;2023-04-23T00:10:36;2.60;2.60;2.20
45700;PMS5003;36277;32.852;-116.998;2023-04-23T00:13:02;2.00;2.00;1.20
45700;PMS5003;36277;32.852;-116.998;2023-04-23T00:15:29;3.60;3.60;2.80
45700;PMS5003;36277;32.852;-116.998;2023-04-23T00:17:56;2.80;2.80;2.60
45700;PMS5003;36277;32.852;-116.998;2023-04-23T00:20:22;2.00;2.00;1.80
45700;PMS5003;36277;32.852;-116.998;2023-04-23T00:22:48;2.80;2.80;2.20
45700;PMS5003;36277;32.852;-116.998;2023-04-23T00:25:15;3.00;3.00;3.00
45700;PMS5003;36277;32.852;-116.998;2023-04-23T00:27:41;3.00;3.00;3.00
45700;PMS5003;36277;32.852;-116.998;2023-04-23T00:30:08;2.20;2.20;2.00
45700;PMS5003;36277;32.852;-116.998;2023-04-23T00:32:34;2.80;2.80;2.80
45700;PMS5003;36277;32.852;-116.998;2023-04-23T00:35:00;2.00;2.00;2.00
45700;PMS5003;36277;32.852;-116.998;2023-04-23T00:37:27;2.00;2.00;2.00
45700;PMS5003;36277;32.852;-116.998;2023-04-23T00:39:53;1.60;1.60;1.20
45700;PMS5003;36277;32.852;-116.998;2023-04-23T00:42:19;2.60;2.60;2.00
45700;PMS5003;36277;32.852;-116.998;2023-04-23T00:44:46;2.00;2.00;2.00
45700;PMS5003;36277;32.852;-116.998;2023-04-23T00:47:13;2.40;2.40;2.40
45700;PMS5003;36277;32.852;-116.998;2023-04-23T00:49:40;3.20;3.20;2.20
45700;PMS5003;36277;32.852;-116.998;2023-04-23T00:52:07;1.00;1.00;0.80
45700;PMS5003;36277;32.852;-116.998;2023-04-23T00:54:33;2.20;2.20;2.00
45700;PMS5003;36277;32.852;-116.998;2023-04-23T00:56:59;2.20;2.20;2.20
45700;PMS5003;36277;32.852;-116.998;2023-04-23T00:59:27;2.00;2.00;2.00
45700;PMS5003;36277;32.852;-116.998;2023-04-23T01:01:55;1.00;1.00;1.00
45700;PMS5003;36277;32.852;-116.998;2023-04-23T01:04:22;1.20;1.20;1.00
45700;PMS5003;36277;32.852;-116.998;2023-04-23T01:06:52;2.80;2.80;2.00
45700;PMS5003;36277;32.852;-116.998;2023-04-23T01:09:18;3.00;3.00;2.40
45700;PMS5003;36277;32.852;-116.998;2023-04-23T01:11:45;2.00;2.00;2.00
45700;PMS5003;36277;32.852;-116.998;2023-04-23T01:14:13;2.00;2.00;2.00
45700;PMS5003;36277;32.852;-116.998;2023-04-23T01:16:39;3.00;3.00;3.00
45700;PMS5003;36277;32.852;-116.998;2023-04-23T01:19:07;2.20;2.20;2.20
45700;PMS5003;36277;32.852;-116.998;2023-04-23T01:21:34;2.00;2.00;2.00
45700;PMS5003;36277;32.852;-116.998;2023-04-23T01:24:04;2.00;2.00;2.00
45700;PMS5003;36277;32.852;-116.998;2023-04-23T01:26:32;2.80;2.80;2.00
45700;PMS5003;36277;32.852;-116.998;2023-04-23T01:28:59;2.80;2.80;2.40
45700;PMS5003;36277;32.852;-116.998;2023-04-23T01:31:28;2.00;2.00;2.00
45700;PMS5003;36277;32.852;-116.998;2023-04-23T01:33:55;2.00;2.00;1.60
45700;PMS5003;36277;32.852;-116.998;2023-04-23T01:36:23;3.00;3.00;2.60
45700;PMS5003;36277;32.852;-116.998;2023-04-23T01:38:51;3.00;3.00;2.80
45700;PMS5003;36277;32.852;-116.998;2023-04-23T01:41:18;2.80;2.80;2.00
45700;PMS5003;36277;32.852;-116.998;2023-04-23T01:43:44;2.00;2.00;2.00
45700;PMS5003;36277;32.852;-116.998;2023-04-23T01:46:11;1.00;1.00;1.00
45700;PMS5003;36277;32.852;-116.998;2023-04-23T01:48:37;2.00;2.00;2.00
45700;PMS5003;36277;32.852;-116.998;2023-04-23T01:51:04;2.00;2.00;2.00
45700;PMS5003;36277;32.852;-116.998;2023-04-23T01:53:30;2.00;2.00;2.00
45700;PMS5003;36277;32.852;-116.998;2023-04-23T01:55:56;2.00;2.00;2.00
45700;PMS5003;36277;32.852;-116.998;2023-04-23T01:58:25;2.00;2.00;2.00
45700;PMS5003;36277;32.852;-116.998;2023-04-23T02:00:51;2.00;2.00;2.00
45700;PMS5003;36277;32.852;-116.998;2023-04-23T02:03:18;2.40;2.40;2.20
45700;PMS5003;36277;32.852;-116.998;2023-04-23T02:05:44;3.00;3.00;2.60
45700;PMS5003;36277;32.852;-116.998;2023-04-23T02:08:10;2.40;2.40;2.00
45700;PMS5003;36277;32.852;-116.998;2023-04-23T02:10:37;3.00;3.00;2.80
45700;PMS5003;36277;32.852;-116.998;2023-04-23T02:13:03;2.60;2.60;2.40
45700;PMS5003;36277;32.852;-116.998;2023-04-23T02:15:29;3.00;3.00;2.00
45700;PMS5003;36277;32.852;-116.998;2023-04-23T02:17:56;3.00;3.00;2.80
45700;PMS5003;36277;32.852;-116.998;2023-04-23T02:20:23;3.00;3.00;3.00
45700;PMS5003;36277;32.852;-116.998;2023-04-23T02:22:49;3.20;3.20;3.00
45700;PMS5003;36277;32.852;-116.998;2023-04-23T02:25:17;2.60;2.60;2.40
45700;PMS5003;36277;32.852;-116.998;2023-04-23T02:27:46;4.40;4.40;4.00
45700;PMS5003;36277;32.852;-116.998;2023-04-23T02:30:13;3.20;3.20;3.00
45700;PMS5003;36277;32.852;-116.998;2023-04-23T02:32:39;2.20;2.20;2.00
45700;PMS5003;36277;32.852;-116.998;2023-04-23T02:35:07;2.20;2.20;2.20
45700;PMS5003;36277;32.852;-116.998;2023-04-23T02:37:35;4.00;4.00;3.00
45700;PMS5003;36277;32.852;-116.998;2023-04-23T02:40:01;3.00;3.00;3.00
45700;PMS5003;36277;32.852;-116.998;2023-04-23T02:42:30;4.00;4.00;3.00
45700;PMS5003;36277;32.852;-116.998;2023-04-23T02:44:56;4.00;4.00;3.60
45700;PMS5003;36277;32.852;-116.998;2023-04-23T02:47:22;2.40;2.40;2.40
45700;PMS5003;36277;32.852;-116.998;2023-04-23T02:49:48;4.00;4.00;3.00
45700;PMS5003;36277;32.852;-116.998;2023-04-23T02:52:14;2.00;2.00;2.00
45700;PMS5003;36277;32.852;-116.998;2023-04-23T02:54:41;6.00;6.00;4.60
45700;PMS5003;36277;32.852;-116.998;2023-04-23T02:57:07;9.00;9.00;7.80
45700;PMS5003;36277;32.852;-116.998;2023-04-23T02:59:33;10.00;10.00;8.20
45700;PMS5003;36277;32.852;-116.998;2023-04-23T03:02:00;11.60;11.60;7.00
45700;PMS5003;36277;32.852;-116.998;2023-04-23T03:04:26;10.40;10.40;8.60
45700;PMS5003;36277;32.852;-116.998;2023-04-23T03:06:53;10.20;10.20;8.00
45700;PMS5003;36277;32.852;-116.998;2023-04-23T03:09:19;8.00;8.00;7.00
45700;PMS5003;36277;32.852;-116.998;2023-04-23T03:11:46;10.00;10.00;7.00
45700;PMS5003;36277;32.852;-116.998;2023-04-23T03:14:12;11.80;11.80;9.00
45700;PMS5003;36277;32.852;-116.998;2023-04-23T03:16:38;8.60;8.60;7.80
45700;PMS5003;36277;32.852;-116.998;2023-04-23T03:19:05;8.40;8.40;6.20
45700;PMS5003;36277;32.852;-116.998;2023-04-23T03:21:31;7.20;7.20;5.20
45700;PMS5003;36277;32.852;-116.998;2023-04-23T03:23:57;8.80;8.80;7.00
45700;PMS5003;36277;32.852;-116.998;2023-04-23T03:26:23;7.60;7.60;6.00
45700;PMS5003;36277;32.852;-116.998;2023-04-23T03:28:50;11.00;11.00;8.20
45700;PMS5003;36277;32.852;-116.998;2023-04-23T03:31:16;6.40;6.40;5.60
45700;PMS5003;36277;32.852;-116.998;2023-04-23T03:33:42;10.40;9.60;5.80
45700;PMS5003;36277;32.852;-116.998;2023-04-23T03:36:08;7.00;7.00;4.40
45700;PMS5003;36277;32.852;-116.998;2023-04-23T03:38:35;9.80;9.80;7.00
45700;PMS5003;36277;32.852;-116.998;2023-04-23T03:41:01;8.80;8.80;7.00
45700;PMS5003;36277;32.852;-116.998;2023-04-23T03:43:27;6.80;6.80;5.60
45700;PMS5003;36277;32.852;-116.998;2023-04-23T03:45:54;6.60;6.60;5.40
45700;PMS5003;36277;32.852;-116.998;2023-04-23T03:48:20;9.00;9.00;6.00
45700;PMS5003;36277;32.852;-116.998;2023-04-23T03:50:46;9.20;9.00;6.80
45700;PMS5003;36277;32.852;-116.998;2023-04-23T03:53:12;8.40;8.40;6.00
45700;PMS5003;36277;32.852;-116.998;2023-04-23T03:55:39;3.80;3.80;3.00
45700;PMS5003;36277;32.852;-116.998;2023-04-23T03:58:05;8.00;8.00;5.80
45700;PMS5003;36277;32.852;-116.998;2023-04-23T04:00:33;7.60;7.60;5.80
45700;PMS5003;36277;32.852;-116.998;2023-04-23T04:03:00;8.00;8.00;5.40
45700;PMS5003;36277;32.852;-116.998;2023-04-23T04:05:27;5.40;5.40;4.60
45700;PMS5003;36277;32.852;-116.998;2023-04-23T04:07:53;8.20;8.20;6.00
45700;PMS5003;36277;32.852;-116.998;2023-04-23T04:10:20;5.40;5.40;4.00
45700;PMS5003;36277;32.852;-116.998;2023-04-23T04:12:46;7.60;6.40;4.60
45700;PMS5003;36277;32.852;-116.998;2023-04-23T04:15:13;9.40;9.40;7.00
45700;PMS5003;36277;32.852;-116.998;2023-04-23T04:17:41;8.20;8.20;5.80
45700;PMS5003;36277;32.852;-116.998;2023-04-23T04:20:10;6.40;6.40;4.40
45700;PMS5003;36277;32.852;-116.998;2023-04-23T04:22:36;8.80;8.80;6.80
45700;PMS5003;36277;32.852;-116.998;2023-04-23T04:25:02;8.80;8.80;5.60
45700;PMS5003;36277;32.852;-116.998;2023-04-23T04:27:29;5.40;5.40;4.80
45700;PMS5003;36277;32.852;-116.998;2023-04-23T04:29:59;6.00;6.00;4.40
45700;PMS5003;36277;32.852;-116.998;2023-04-23T04:32:30;5.80;5.80;4.60
45700;PMS5003;36277;32.852;-116.998;2023-04-23T04:34:57;5.20;5.20;4.60
45700;PMS5003;36277;32.852;-116.998;2023-04-23T04:37:23;6.40;6.40;5.20
45700;PMS5003;36277;32.852;-116.998;2023-04-23T04:39:49;5.60;5.60;4.00
45700;PMS5003;36277;32.852;-116.998;2023-04-23T04:42:16;4.80;4.80;4.60
45700;PMS5003;36277;32.852;-116.998;2023-04-23T04:44:42;5.20;5.20;4.40
45700;PMS5003;36277;32.852;-116.998;2023-04-23T04:47:08;5.40;5.40;4.00
45700;PMS5003;36277;32.852;-116.998;2023-04-23T04:49:35;5.20;5.20;4.40
45700;PMS5003;36277;32.852;-116.998;2023-04-23T04:52:01;5.80;5.80;4.00
45700;PMS5003;36277;32.852;-116.998;2023-04-23T04:54:27;4.40;4.40;3.40
45700;PMS5003;36277;32.852;-116.998;2023-04-23T04:56:53;5.40;5.40;4.80
45700;PMS5003;36277;32.852;-116.998;2023-04-23T04:59:20;6.00;6.00;4.00
45700;PMS5003;36277;32.852;-116.998;2023-04-23T05:01:46;5.60;5.60;4.80
45700;PMS5003;36277;32.852;-116.998;2023-04-23T05:04:12;6.00;6.00;4.20
45700;PMS5003;36277;32.852;-116.998;2023-04-23T05:06:39;5.60;5.60;4.60
45700;PMS5003;36277;32.852;-116.998;2023-04-23T05:09:05;5.00;5.00;3.20
45700;PMS5003;36277;32.852;-116.998;2023-04-23T05:11:32;3.00;3.00;2.40
45700;PMS5003;36277;32.852;-116.998;2023-04-23T05:14:00;6.80;6.80;5.00
45700;PMS5003;36277;32.852;-116.998;2023-04-23T05:16:26;5.00;5.00;3.60
45700;PMS5003;36277;32.852;-116.998;2023-04-23T05:18:52;5.20;5.20;5.00
45700;PMS5003;36277;32.852;-116.998;2023-04-23T05:21:18;4.20;4.20;4.00
45700;PMS5003;36277;32.852;-116.998;2023-04-23T05:23:45;5.60;5.60;5.20
45700;PMS5003;36277;32.852;-116.998;2023-04-23T05:26:11;6.40;6.40;4.60
45700;PMS5003;36277;32.852;-116.998;2023-04-23T05:28:37;4.60;4.60;3.80
45700;PMS5003;36277;32.852;-116.998;2023-04-23T05:31:04;6.60;6.60;5.20
45700;PMS5003;36277;32.852;-116.998;2023-04-23T05:33:30;5.60;5.60;4.00
45700;PMS5003;36277;32.852;-116.998;2023-04-23T05:35:56;6.80;6.80;5.20
45700;PMS5003;36277;32.852;-116.998;2023-04-23T05:38:23;6.20;6.20;5.00
45700;PMS5003;36277;32.852;-116.998;2023-04-23T05:40:49;6.00;6.00;4.00
45700;PMS5003;36277;32.852;-116.998;2023-04-23T05:43:15;4.40;4.40;3.40
45700;PMS5003;36277;32.852;-116.998;2023-04-23T05:45:42;5.00;5.00;4.40
45700;PMS5003;36277;32.852;-116.998;2023-04-23T05:48:08;4.20;4.20;3.80
45700;PMS5003;36277;32.852;-116.998;2023-04-23T05:50:35;5.00;5.00;3.40
45700;PMS5003;36277;32.852;-116.998;2023-04-23T05:53:01;5.20;5.20;5.00
45700;PMS5003;36277;32.852;-116.998;2023-04-23T05:55:28;5.00;5.00;4.60
45700;PMS5003;36277;32.852;-116.998;2023-04-23T05:57:54;4.60;4.60;4.20
45700;PMS5003;36277;32.852;-116.998;2023-04-23T06:00:20;5.00;5.00;4.00
45700;PMS5003;36277;32.852;-116.998;2023-04-23T06:02:46;6.00;6.00;5.00
45700;PMS5003;36277;32.852;-116.998;2023-04-23T06:05:13;5.00;5.00;4.40
45700;PMS5003;36277;32.852;-116.998;2023-04-23T06:07:39;4.80;4.80;3.60
45700;PMS5003;36277;32.852;-116.998;2023-04-23T06:10:05;2.60;2.60;2.20
45700;PMS5003;36277;32.852;-116.998;2023-04-23T06:12:32;5.00;5.00;4.00
45700;PMS5003;36277;32.852;-116.998;2023-04-23T06:14:58;3.40;3.40;2.40
45700;PMS5003;36277;32.852;-116.998;2023-04-23T06:17:25;3.40;3.40;2.60
45700;PMS5003;36277;32.852;-116.998;2023-04-23T06:19:51;3.60;3.60;3.40
45700;PMS5003;36277;32.852;-116.998;2023-04-23T06:22:17;3.40;3.40;3.40
45700;PMS5003;36277;32.852;-116.998;2023-04-23T06:24:43;4.00;4.00;3.40
45700;PMS5003;36277;32.852;-116.998;2023-04-23T06:27:10;5.60;5.60;4.20
45700;PMS5003;36277;32.852;-116.998;2023-04-23T06:29:36;5.00;5.00;3.40
45700;PMS5003;36277;32.852;-116.998;2023-04-23T06:32:02;5.20;5.20;4.60
45700;PMS5003;36277;32.852;-116.998;2023-04-23T06:34:29;7.00;5.60;4.60
45700;PMS5003;36277;32.852;-116.998;2023-04-23T06:36:55;3.20;3.20;2.20
45700;PMS5003;36277;32.852;-116.998;2023-04-23T06:39:22;5.40;5.40;4.40
45700;PMS5003;36277;32.852;-116.998;2023-04-23T06:41:48;3.80;3.80;3.00
45700;PMS5003;36277;32.852;-116.998;2023-04-23T06:44:15;4.20;4.20;3.60
45700;PMS5003;36277;32.852;-116.998;2023-04-23T06:46:41;2.40;2.40;2.40
45700;PMS5003;36277;32.852;-116.998;2023-04-23T06:49:07;3.60;3.60;3.40
45700;PMS5003;36277;32.852;-116.998;2023-04-23T06:51:33;2.40;2.40;2.00
45700;PMS5003;36277;32.852;-116.998;2023-04-23T06:54:00;4.00;4.00;3.40
45700;PMS5003;36277;32.852;-116.998;2023-04-23T06:56:26;4.40;4.40;4.00
45700;PMS5003;36277;32.852;-116.998;2023-04-23T06:58:52;2.40;2.40;2.40
45700;PMS5003;36277;32.852;-116.998;2023-04-23T07:01:18;3.00;3.00;2.80
45700;PMS5003;36277;32.852;-116.998;2023-04-23T07:03:45;3.80;3.80;3.40
45700;PMS5003;36277;32.852;-116.998;2023-04-23T07:06:16;3.20;3.20;2.40
45700;PMS5003;36277;32.852;-116.998;2023-04-23T07:08:42;5.20;5.20;4.20
45700;PMS5003;36277;32.852;-116.998;2023-04-23T07:11:12;4.20;4.20;3.60
45700;PMS5003;36277;32.852;-116.998;2023-04-23T07:13:39;4.00;4.00;3.20
45700;PMS5003;36277;32.852;-116.998;2023-04-23T07:16:06;4.20;4.20;3.80
45700;PMS5003;36277;32.852;-116.998;2023-04-23T07:18:33;4.80;4.80;3.80
45700;PMS5003;36277;32.852;-116.998;2023-04-23T07:20:59;4.00;4.00;3.80
45700;PMS5003;36277;32.852;-116.998;2023-04-23T07:23:25;5.00;5.00;3.80
45700;PMS5003;36277;32.852;-116.998;2023-04-23T07:25:51;3.60;3.60;3.00
45700;PMS5003;36277;32.852;-116.998;2023-04-23T07:28:18;3.60;3.60;2.80
45700;PMS5003;36277;32.852;-116.998;2023-04-23T07:30:44;4.00;4.00;3.00
45700;PMS5003;36277;32.852;-116.998;2023-04-23T07:33:10;3.00;3.00;2.20
45700;PMS5003;36277;32.852;-116.998;2023-04-23T07:35:37;3.20;3.20;3.00
45700;PMS5003;36277;32.852;-116.998;2023-04-23T07:38:03;5.00;5.00;4.20
45700;PMS5003;36277;32.852;-116.998;2023-04-23T07:40:30;4.00;4.00;3.20
45700;PMS5003;36277;32.852;-116.998;2023-04-23T07:42:56;4.00;4.00;3.00
45700;PMS5003;36277;32.852;-116.998;2023-04-23T07:45:23;5.00;5.00;4.20
45700;PMS5003;36277;32.852;-116.998;2023-04-23T07:47:49;4.00;4.00;3.40
45700;PMS5003;36277;32.852;-116.998;2023-04-23T07:50:16;4.40;4.40;4.00
45700;PMS5003;36277;32.852;-116.998;2023-04-23T07:52:42;4.00;4.00;3.00
45700;PMS5003;36277;32.852;-116.998;2023-04-23T07:55:08;3.00;3.00;2.40
45700;PMS5003;36277;32.852;-116.998;2023-04-23T07:57:34;3.60;3.60;3.00
45700;PMS5003;36277;32.852;-116.998;2023-04-23T08:00:01;4.00;4.00;3.80
45700;PMS5003;36277;32.852;-116.998;2023-04-23T08:02:29;5.20;5.20;4.40
45700;PMS5003;36277;32.852;-116.998;2023-04-23T08:04:55;4.60;4.60;3.00
45700;PMS5003;36277;32.852;-116.998;2023-04-23T08:07:21;3.80;3.80;2.60
45700;PMS5003;36277;32.852;-116.998;2023-04-23T08:09:47;3.80;3.80;3.20
45700;PMS5003;36277;32.852;-116.998;2023-04-23T08:12:14;3.00;3.00;2.40
45700;PMS5003;36277;32.852;-116.998;2023-04-23T08:14:42;4.00;4.00;3.00
45700;PMS5003;36277;32.852;-116.998;2023-04-23T08:17:08;4.20;4.20;3.00
45700;PMS5003;36277;32.852;-116.998;2023-04-23T08:19:34;3.20;3.20;3.00
45700;PMS5003;36277;32.852;-116.998;2023-04-23T08:22:01;3.00;3.00;3.00
45700;PMS5003;36277;32.852;-116.998;2023-04-23T08:24:27;3.80;3.80;3.00
45700;PMS5003;36277;32.852;-116.998;2023-04-23T08:26:53;3.80;3.80;3.00
45700;PMS5003;36277;32.852;-116.998;2023-04-23T08:29:19;3.00;3.00;3.00
45700;PMS5003;36277;32.852;-116.998;2023-04-23T08:31:46;3.00;3.00;3.00
45700;PMS5003;36277;32.852;-116.998;2023-04-23T08:34:12;3.40;3.40;3.00
45700;PMS5003;36277;32.852;-116.998;2023-04-23T08:36:39;4.00;4.00;3.00
45700;PMS5003;36277;32.852;-116.998;2023-04-23T08:39:05;3.80;3.80;3.00
45700;PMS5003;36277;32.852;-116.998;2023-04-23T08:41:38;3.60;3.60;3.00
45700;PMS5003;36277;32.852;-116.998;2023-04-23T08:44:13;3.00;3.00;3.00
45700;PMS5003;36277;32.852;-116.998;2023-04-23T08:46:44;2.80;2.80;2.60
45700;PMS5003;36277;32.852;-116.998;2023-04-23T08:49:14;3.00;3.00;2.00
45700;PMS5003;36277;32.852;-116.998;2023-04-23T08:51:42;3.00;3.00;2.80
45700;PMS5003;36277;32.852;-116.998;2023-04-23T08:54:16;5.80;5.80;5.00
45700;PMS5003;36277;32.852;-116.998;2023-04-23T08:56:49;3.00;3.00;2.80
45700;PMS5003;36277;32.852;-116.998;2023-04-23T08:59:17;0.40;0.40;0.00
45700;PMS5003;36277;32.852;-116.998;2023-04-23T09:01:45;4.00;4.00;3.20
45700;PMS5003;36277;32.852;-116.998;2023-04-23T09:04:12;4.60;4.60;4.00
45700;PMS5003;36277;32.852;-116.998;2023-04-23T09:06:44;3.20;3.20;3.00
45700;PMS5003;36277;32.852;-116.998;2023-04-23T09:09:10;2.60;2.60;2.00
45700;PMS5003;36277;32.852;-116.998;2023-04-23T09:11:40;3.20;3.20;2.80
45700;PMS5003;36277;32.852;-116.998;2023-04-23T09:14:07;3.20;3.20;3.00
45700;PMS5003;36277;32.852;-116.998;2023-04-23T09:16:33;3.00;3.00;2.80
45700;PMS5003;36277;32.852;-116.998;2023-04-23T09:19:00;3.00;3.00;3.00
45700;PMS5003;36277;32.852;-116.998;2023-04-23T09:21:27;3.40;3.40;3.00
45700;PMS5003;36277;32.852;-116.998;2023-04-23T09:23:53;4.00;4.00;3.00
45700;PMS5003;36277;32.852;-116.998;2023-04-23T09:26:20;3.60;3.60;3.00
45700;PMS5003;36277;32.852;-116.998;2023-04-23T09:28:50;3.60;3.60;2.60
45700;PMS5003;36277;32.852;-116.998;2023-04-23T09:31:20;5.00;5.00;4.00
45700;PMS5003;36277;32.852;-116.998;2023-04-23T09:33:51;3.20;3.20;3.00
45700;PMS5003;36277;32.852;-116.998;2023-04-23T09:36:21;4.20;4.20;3.20
45700;PMS5003;36277;32.852;-116.998;2023-04-23T09:38:48;3.60;3.60;3.00
45700;PMS5003;36277;32.852;-116.998;2023-04-23T09:41:24;3.00;3.00;2.00
45700;PMS5003;36277;32.852;-116.998;2023-04-23T09:43:55;3.80;3.80;3.20
45700;PMS5003;36277;32.852;-116.998;2023-04-23T09:46:32;4.00;4.00;3.00
45700;PMS5003;36277;32.852;-116.998;2023-04-23T09:48:59;3.80;3.80;3.00
45700;PMS5003;36277;32.852;-116.998;2023-04-23T09:51:28;4.00;4.00;3.00
45700;PMS5003;36277;32.852;-116.998;2023-04-23T09:53:55;3.00;3.00;2.60
45700;PMS5003;36277;32.852;-116.998;2023-04-23T09:56:23;3.00;3.00;3.00
45700;PMS5003;36277;32.852;-116.998;2023-04-23T09:58:49;3.00;3.00;2.00
45700;PMS5003;36277;32.852;-116.998;2023-04-23T10:01:16;3.00;3.00;2.00
45700;PMS5003;36277;32.852;-116.998;2023-04-23T10:03:43;3.20;3.20;3.00
45700;PMS5003;36277;32.852;-116.998;2023-04-23T10:06:13;4.40;4.40;3.20
45700;PMS5003;36277;32.852;-116.998;2023-04-23T10:08:39;3.00;3.00;3.00
45700;PMS5003;36277;32.852;-116.998;2023-04-23T10:11:06;4.00;4.00;3.60
45700;PMS5003;36277;32.852;-116.998;2023-04-23T10:13:33;3.40;3.40;2.80
45700;PMS5003;36277;32.852;-116.998;2023-04-23T10:16:00;3.00;3.00;3.00
45700;PMS5003;36277;32.852;-116.998;2023-04-23T10:18:29;4.20;4.00;3.00
45700;PMS5003;36277;32.852;-116.998;2023-04-23T10:20:58;2.40;2.40;2.00
45700;PMS5003;36277;32.852;-116.998;2023-04-23T10:23:27;3.00;3.00;2.00
45700;PMS5003;36277;32.852;-116.998;2023-04-23T10:25:54;3.00;3.00;2.40
45700;PMS5003;36277;32.852;-116.998;2023-04-23T10:28:22;4.00;4.00;3.00
45700;PMS5003;36277;32.852;-116.998;2023-04-23T10:30:55;3.00;3.00;2.60
45700;PMS5003;36277;32.852;-116.998;2023-04-23T10:33:23;3.40;3.40;3.00
45700;PMS5003;36277;32.852;-116.998;2023-04-23T10:35:54;4.20;4.20;3.60
45700;PMS5003;36277;32.852;-116.998;2023-04-23T10:38:21;3.00;3.00;2.40
45700;PMS5003;36277;32.852;-116.998;2023-04-23T10:40:52;3.40;3.40;3.40
45700;PMS5003;36277;32.852;-116.998;2023-04-23T10:43:21;2.60;2.60;2.00
45700;PMS5003;36277;32.852;-116.998;2023-04-23T10:45:48;2.80;2.80;2.80
45700;PMS5003;36277;32.852;-116.998;2023-04-23T10:48:15;3.80;3.80;2.80
45700;PMS5003;36277;32.852;-116.998;2023-04-23T10:50:41;1.20;1.20;1.00
45700;PMS5003;36277;32.852;-116.998;2023-04-23T10:53:17;3.00;3.00;2.40
45700;PMS5003;36277;32.852;-116.998;2023-04-23T10:55:47;4.40;4.40;3.40
45700;PMS5003;36277;32.852;-116.998;2023-04-23T10:58:13;3.00;3.00;3.00
45700;PMS5003;36277;32.852;-116.998;2023-04-23T11:05:51;3.00;3.00;3.00
45700;PMS5003;36277;32.852;-116.998;2023-04-23T11:08:19;3.80;3.80;3.20
45700;PMS5003;36277;32.852;-116.998;2023-04-23T11:10:55;2.00;2.00;2.00
45700;PMS5003;36277;32.852;-116.998;2023-04-23T11:13:26;3.60;3.60;3.00
45700;PMS5003;36277;32.852;-116.998;2023-04-23T11:16:13;3.00;3.00;2.80
45700;PMS5003;36277;32.852;-116.998;2023-04-23T11:24:26;1.00;1.00;1.00
45700;PMS5003;36277;32.852;-116.998;2023-04-23T11:26:55;4.00;4.00;3.80
45700;PMS5003;36277;32.852;-116.998;2023-04-23T11:29:23;3.60;3.60;3.60
45700;PMS5003;36277;32.852;-116.998;2023-04-23T11:31:54;4.00;4.00;3.00
45700;PMS5003;36277;32.852;-116.998;2023-04-23T11:34:21;4.00;4.00;3.00
45700;PMS5003;36277;32.852;-116.998;2023-04-23T11:36:50;2.60;2.60;2.00
45700;PMS5003;36277;32.852;-116.998;2023-04-23T11:39:18;3.00;3.00;3.00
45700;PMS5003;36277;32.852;-116.998;2023-04-23T11:41:47;3.80;3.80;3.00
45700;PMS5003;36277;32.852;-116.998;2023-04-23T11:44:18;4.00;4.00;4.00
45700;PMS5003;36277;32.852;-116.998;2023-04-23T11:46:47;3.00;3.00;3.00
45700;PMS5003;36277;32.852;-116.998;2023-04-23T11:49:15;3.40;3.40;3.00
45700;PMS5003;36277;32.852;-116.998;2023-04-23T11:51:43;3.00;3.00;3.00
45700;PMS5003;36277;32.852;-116.998;2023-04-23T11:54:10;3.00;3.00;3.00
45700;PMS5003;36277;32.852;-116.998;2023-04-23T11:56:38;3.00;3.00;3.00
45700;PMS5003;36277;32.852;-116.998;2023-04-23T11:59:05;3.60;3.60;3.00
45700;PMS5003;36277;32.852;-116.998;2023-04-23T12:02:05;3.00;3.00;2.80
45700;PMS5003;36277;32.852;-116.998;2023-04-23T12:04:25;2.00;2.00;2.00
45700;PMS5003;36277;32.852;-116.998;2023-04-23T12:06:53;3.40;3.40;3.00
45700;PMS5003;36277;32.852;-116.998;2023-04-23T12:09:21;3.40;3.40;3.00
45700;PMS5003;36277;32.852;-116.998;2023-04-23T12:11:49;4.00;4.00;3.00
45700;PMS5003;36277;32.852;-116.998;2023-04-23T12:14:15;3.40;3.40;2.60
45700;PMS5003;36277;32.852;-116.998;2023-04-23T12:16:43;3.60;3.60;3.40
45700;PMS5003;36277;32.852;-116.998;2023-04-23T12:19:15;3.00;3.00;3.00
45700;PMS5003;36277;32.852;-116.998;2023-04-23T12:21:46;3.60;3.60;3.20
45700;PMS5003;36277;32.852;-116.998;2023-04-23T12:24:13;3.00;3.00;2.60
45700;PMS5003;36277;32.852;-116.998;2023-04-23T12:26:40;3.00;3.00;3.00
45700;PMS5003;36277;32.852;-116.998;2023-04-23T12:29:11;3.00;3.00;2.80
45700;PMS5003;36277;32.852;-116.998;2023-04-23T12:31:38;3.20;3.20;2.80
45700;PMS5003;36277;32.852;-116.998;2023-04-23T12:34:05;2.40;2.40;2.20
45700;PMS5003;36277;32.852;-116.998;2023-04-23T12:36:34;5.00;5.00;4.60
45700;PMS5003;36277;32.852;-116.998;2023-04-23T12:41:58;3.60;3.60;3.40
45700;PMS5003;36277;32.852;-116.998;2023-04-23T12:44:35;2.00;2.00;2.00
45700;PMS5003;36277;32.852;-116.998;2023-04-23T12:47:06;2.00;2.00;2.00
45700;PMS5003;36277;32.852;-116.998;2023-04-23T12:49:36;1.00;1.00;1.00
45700;PMS5003;36277;32.852;-116.998;2023-04-23T12:52:05;2.60;2.60;2.00
45700;PMS5003;36277;32.852;-116.998;2023-04-23T12:54:33;2.80;2.80;2.60
45700;PMS5003;36277;32.852;-116.998;2023-04-23T12:57:04;3.00;3.00;2.60
45700;PMS5003;36277;32.852;-116.998;2023-04-23T12:59:32;3.60;3.60;3.20
45700;PMS5003;36277;32.852;-116.998;2023-04-23T13:01:59;3.00;3.00;2.80
45700;PMS5003;36277;32.852;-116.998;2023-04-23T13:04:32;3.60;3.60;3.00
45700;PMS5003;36277;32.852;-116.998;2023-04-23T13:06:59;3.60;3.60;2.80
45700;PMS5003;36277;32.852;-116.998;2023-04-23T13:09:26;2.00;2.00;1.00
45700;PMS5003;36277;32.852;-116.998;2023-04-23T13:11:53;3.60;3.60;2.40
45700;PMS5003;36277;32.852;-116.998;2023-04-23T13:14:20;3.00;3.00;2.80
45700;PMS5003;36277;32.852;-116.998;2023-04-23T13:16:46;4.00;4.00;3.00
45700;PMS5003;36277;32.852;-116.998;2023-04-23T13:19:13;3.00;3.00;3.00
45700;PMS5003;36277;32.852;-116.998;2023-04-23T13:21:41;3.00;3.00;3.00
45700;PMS5003;36277;32.852;-116.998;2023-04-23T13:24:07;4.00;4.00;4.00
45700;PMS5003;36277;32.852;-116.998;2023-04-23T13:26:33;4.00;4.00;2.40
45700;PMS5003;36277;32.852;-116.998;2023-04-23T13:29:01;3.40;3.40;3.00
45700;PMS5003;36277;32.852;-116.998;2023-04-23T13:31:28;4.20;4.20;3.60
45700;PMS5003;36277;32.852;-116.998;2023-04-23T13:33:54;3.00;3.00;2.80
45700;PMS5003;36277;32.852;-116.998;2023-04-23T13:36:21;3.40;3.40;2.40
45700;PMS5003;36277;32.852;-116.998;2023-04-23T13:38:47;3.40;3.40;3.20
45700;PMS5003;36277;32.852;-116.998;2023-04-23T13:41:13;3.80;3.80;3.20
45700;PMS5003;36277;32.852;-116.998;2023-04-23T13:43:40;4.60;4.60;4.00
45700;PMS5003;36277;32.852;-116.998;2023-04-23T13:46:06;3.00;3.00;3.00
45700;PMS5003;36277;32.852;-116.998;2023-04-23T13:48:32;4.40;4.40;4.40
45700;PMS5003;36277;32.852;-116.998;2023-04-23T13:50:59;4.00;4.00;3.00
45700;PMS5003;36277;32.852;-116.998;2023-04-23T13:53:26;4.60;4.60;3.80
45700;PMS5003;36277;32.852;-116.998;2023-04-23T13:55:56;4.40;4.40;3.60
45700;PMS5003;36277;32.852;-116.998;2023-04-23T13:58:24;3.60;3.60;3.00
45700;PMS5003;36277;32.852;-116.998;2023-04-23T14:00:50;4.00;4.00;3.00